createdAt,value
2019-03-23T00:00:40.151Z,69.47
2019-03-23T00:03:15.174Z,68.83
2019-03-23T00:05:50.331Z,70.03
2019-03-23T00:08:24.679Z,68.15
2019-03-23T00:10:58.770Z,70.90
2019-03-23T00:13:32.753Z,66.35
2019-03-23T00:16:06.887Z,67.27
2019-03-23T00:18:40.980Z,69.20
2019-03-23T00:21:15.052Z,58.45
2019-03-23T00:23:49.073Z,68.83
2019-03-23T00:26:23.059Z,59.93
2019-03-23T00:28:57.230Z,65.55
2019-03-23T00:31:31.317Z,54.67
2019-03-23T00:34:05.266Z,62.38
2019-03-23T00:36:41.801Z,55.58
2019-03-23T00:39:15.340Z,51.15
2019-03-23T00:41:49.762Z,52.75
2019-03-23T00:44:23.780Z,58.28
2019-03-23T00:47:06.089Z,56.65
2019-03-23T00:49:40.135Z,56.73
2019-03-23T00:52:14.309Z,62.13
2019-03-23T00:54:48.319Z,70.40
2019-03-23T00:57:22.362Z,67.62
2019-03-23T01:00:03.006Z,65.35
2019-03-23T01:02:34.595Z,65.85
2019-03-23T01:05:09.324Z,64.72
2019-03-23T01:07:43.857Z,63.35
2019-03-23T01:10:18.173Z,65.00
2019-03-23T01:12:52.337Z,54.70
2019-03-23T01:15:27.682Z,73.15
2019-03-23T01:18:01.917Z,82.25
2019-03-23T01:20:36.014Z,68.35
2019-03-23T01:23:10.299Z,62.80
2019-03-23T01:25:47.645Z,60.98
2019-03-23T01:28:22.404Z,66.67
2019-03-23T01:31:21.120Z,61.08
2019-03-23T01:33:50.620Z,59.00
2019-03-23T01:36:33.151Z,60.48
2019-03-23T01:39:08.661Z,68.12
2019-03-23T01:41:48.385Z,67.42
2019-03-23T01:44:24.410Z,65.67
2019-03-23T01:47:23.911Z,67.47
2019-03-23T01:50:00.852Z,63.35
2019-03-23T01:52:40.190Z,73.07
2019-03-23T01:55:18.808Z,79.60
2019-03-23T01:57:55.634Z,75.60
2019-03-23T02:00:37.326Z,69.82
2019-03-23T02:03:12.033Z,67.05
2019-03-23T02:05:52.364Z,64.92
2019-03-23T02:08:32.142Z,59.73
2019-03-23T02:11:08.212Z,59.23
2019-03-23T02:13:50.632Z,56.48
2019-03-23T02:16:37.018Z,63.92
2019-03-23T02:19:13.409Z,60.60
2019-03-23T02:21:50.593Z,51.77
2019-03-23T02:24:25.043Z,50.58
2019-03-23T02:27:01.486Z,51.05
2019-03-23T02:29:49.691Z,48.13
2019-03-23T02:32:31.782Z,49.80
2019-03-23T02:35:21.590Z,47.50
2019-03-23T02:37:52.668Z,51.70
2019-03-23T02:40:30.633Z,47.30
2019-03-23T02:43:15.162Z,46.02
2019-03-23T02:45:51.711Z,44.85
2019-03-23T02:48:27.113Z,48.42
2019-03-23T02:51:13.644Z,48.50
2019-03-23T02:53:50.419Z,40.90
2019-03-23T02:56:24.872Z,45.00
2019-03-23T02:59:11.720Z,45.25
2019-03-23T03:01:48.985Z,40.67
2019-03-23T03:04:29.382Z,49.80
2019-03-23T03:07:04.223Z,48.02
2019-03-23T03:09:49.150Z,49.13
2019-03-23T03:12:29.347Z,51.35
2019-03-23T03:15:23.209Z,53.58
2019-03-23T03:17:53.495Z,55.03
2019-03-23T03:23:18.928Z,61.20
2019-03-23T03:25:55.658Z,55.70
2019-03-23T03:28:32.430Z,50.80
2019-03-23T03:31:07.548Z,51.63
2019-03-23T03:34:11.905Z,50.08
2019-03-23T03:36:29.774Z,49.83
2019-03-23T03:39:22.700Z,51.13
2019-03-23T03:41:48.763Z,54.40
2019-03-23T03:44:46.690Z,56.85
2019-03-23T03:47:32.989Z,50.83
2019-03-23T03:50:27.536Z,52.95
2019-03-23T03:53:13.712Z,45.98
2019-03-23T03:55:55.405Z,53.15
2019-03-23T03:58:43.272Z,56.30
2019-03-23T04:01:24.797Z,53.68
2019-03-23T04:04:04.535Z,54.93
2019-03-23T04:06:41.389Z,61.88
2019-03-23T04:09:23.408Z,75.20
2019-03-23T04:12:02.490Z,78.85
2019-03-23T04:14:38.555Z,70.10
2019-03-23T04:17:29.490Z,71.12
2019-03-23T04:20:07.960Z,65.45
2019-03-23T04:22:47.669Z,67.22
2019-03-23T04:25:35.718Z,56.30
2019-03-23T04:28:20.391Z,57.93
2019-03-23T04:31:11.603Z,57.75
2019-03-23T04:33:53.562Z,47.60
2019-03-23T04:36:31.186Z,52.95
2019-03-23T04:39:16.034Z,50.28
2019-03-23T04:41:50.906Z,55.40
2019-03-23T04:44:27.629Z,50.50
2019-03-23T04:47:06.771Z,53.73
2019-03-23T04:49:55.963Z,52.75
2019-03-23T04:52:45.946Z,51.28
2019-03-23T04:56:02.973Z,57.48
2019-03-23T05:01:30.924Z,58.70
2019-03-23T05:04:16.690Z,59.00
2019-03-23T05:07:27.566Z,53.48
2019-03-23T05:10:04.942Z,59.93
2019-03-23T05:12:41.975Z,59.13
2019-03-23T05:15:20.541Z,62.13
2019-03-23T05:18:00.199Z,70.75
2019-03-23T05:20:43.421Z,80.53
2019-03-23T05:23:31.098Z,83.50
2019-03-23T05:26:10.784Z,88.10
2019-03-23T05:28:47.281Z,83.42
2019-03-23T05:35:18.378Z,87.82
2019-03-23T05:37:52.789Z,77.17
2019-03-23T05:40:34.138Z,71.92
2019-03-23T05:43:10.707Z,67.87
2019-03-23T05:45:53.646Z,66.53
2019-03-23T05:48:28.768Z,81.02
2019-03-23T05:51:12.194Z,79.32
2019-03-23T05:53:48.673Z,78.22
2019-03-23T05:56:23.044Z,64.58
2019-03-23T05:59:00.418Z,69.55
2019-03-23T06:01:34.959Z,64.62
2019-03-23T06:04:13.407Z,66.55
2019-03-23T06:06:47.986Z,60.03
2019-03-23T06:09:26.847Z,65.00
2019-03-23T06:12:01.611Z,60.50
2019-03-23T06:14:41.376Z,72.50
2019-03-23T06:17:21.361Z,70.22
2019-03-23T06:19:58.201Z,63.65
2019-03-23T06:22:32.503Z,73.78
2019-03-23T06:25:08.679Z,71.10
2019-03-23T06:27:43.491Z,72.20
2019-03-23T06:30:20.970Z,67.03
2019-03-23T06:33:00.173Z,56.65
2019-03-23T06:35:36.413Z,72.22
2019-03-23T06:38:10.887Z,60.25
2019-03-23T06:40:48.651Z,58.60
2019-03-23T06:43:28.641Z,67.82
2019-03-23T06:46:25.682Z,65.67
2019-03-23T06:49:45.373Z,64.05
2019-03-23T06:52:38.658Z,66.82
2019-03-23T06:55:22.779Z,65.52
2019-03-23T06:58:06.680Z,73.83
2019-03-23T07:00:52.327Z,61.23
2019-03-23T07:03:32.796Z,70.87
2019-03-23T07:06:07.139Z,63.45
2019-03-23T07:08:44.166Z,66.82
2019-03-23T07:11:29.687Z,61.50
2019-03-23T07:14:14.130Z,69.15
2019-03-23T07:16:49.056Z,72.37
2019-03-23T07:19:23.355Z,66.37
2019-03-23T07:22:03.408Z,72.90
2019-03-23T07:24:42.304Z,65.95
2019-03-23T07:27:22.058Z,71.22
2019-03-23T07:30:08.517Z,68.92
2019-03-23T07:32:46.153Z,74.85
2019-03-23T07:35:24.573Z,72.47
2019-03-23T07:38:10.779Z,78.72
2019-03-23T07:40:42.316Z,76.20
2019-03-23T07:43:18.417Z,76.95
2019-03-23T07:46:06.580Z,74.32
2019-03-23T07:48:38.864Z,83.62
2019-03-23T07:51:14.479Z,73.35
2019-03-23T07:53:50.005Z,91.60
2019-03-23T07:56:24.080Z,73.20
2019-03-23T07:58:59.721Z,71.20
2019-03-23T08:01:39.869Z,73.25
2019-03-23T08:04:21.726Z,75.10
2019-03-23T08:06:57.380Z,78.20
2019-03-23T08:09:37.929Z,69.07
2019-03-23T08:12:12.699Z,78.50
2019-03-23T08:14:48.251Z,75.35
2019-03-23T08:17:26.639Z,74.40
2019-03-23T08:20:05.953Z,83.22
2019-03-23T08:22:41.557Z,84.30
2019-03-23T08:25:18.902Z,87.33
2019-03-23T08:27:53.390Z,72.82
2019-03-23T08:30:35.774Z,75.55
2019-03-23T08:33:10.867Z,73.55
2019-03-23T08:35:45.881Z,72.70
2019-03-23T08:38:23.331Z,73.55
2019-03-23T08:40:57.395Z,76.05
2019-03-23T08:43:36.655Z,75.45
2019-03-23T08:46:18.427Z,71.00
2019-03-23T08:48:52.479Z,66.90
2019-03-23T08:52:03.471Z,74.25
2019-03-23T08:54:45.479Z,65.97
2019-03-23T08:57:16.776Z,67.15
2019-03-23T08:59:50.909Z,68.87
2019-03-23T09:02:25.147Z,69.17
2019-03-23T09:05:04.789Z,68.28
2019-03-23T09:08:02.971Z,67.40
2019-03-23T09:10:17.620Z,69.03
2019-03-23T09:12:51.576Z,66.72
2019-03-23T09:15:25.513Z,64.87
2019-03-23T09:17:59.529Z,63.13
2019-03-23T09:20:36.386Z,61.37
2019-03-23T09:23:10.378Z,68.42
2019-03-23T09:25:45.693Z,65.37
2019-03-23T09:28:19.910Z,62.08
2019-03-23T09:30:55.335Z,65.65
2019-03-23T09:33:29.860Z,60.78
2019-03-23T09:36:03.970Z,59.30
2019-03-23T09:38:38.015Z,65.90
2019-03-23T09:41:11.954Z,62.40
2019-03-23T09:43:45.948Z,64.82
2019-03-23T09:46:19.891Z,65.22
2019-03-23T09:48:54.379Z,59.60
2019-03-23T09:51:29.336Z,57.35
2019-03-23T09:54:03.386Z,63.98
2019-03-23T09:56:55.236Z,58.60
2019-03-23T09:59:44.720Z,57.35
2019-03-23T10:03:24.423Z,64.77
2019-03-23T10:06:56.374Z,57.98
2019-03-23T10:09:45.015Z,60.60
2019-03-23T10:16:47.884Z,60.15
2019-03-23T10:23:00.678Z,65.65
2019-03-23T10:29:02.508Z,60.83
2019-03-23T10:31:44.850Z,64.50
2019-03-23T10:34:22.066Z,60.73
2019-03-23T10:37:01.162Z,56.90
2019-03-23T10:39:37.807Z,56.15
2019-03-23T10:42:16.296Z,60.05
2019-03-23T10:44:50.849Z,57.90
2019-03-23T10:47:27.456Z,51.77
2019-03-23T10:50:03.545Z,51.00
2019-03-23T10:52:40.038Z,53.90
2019-03-23T10:55:15.140Z,54.93
2019-03-23T10:57:51.195Z,50.48
2019-03-23T11:00:27.718Z,50.38
2019-03-23T11:03:05.398Z,51.18
2019-03-23T11:05:40.127Z,44.55
2019-03-23T11:08:17.400Z,45.03
2019-03-23T11:10:51.411Z,46.70
2019-03-23T11:13:25.317Z,49.33
2019-03-23T11:15:59.368Z,50.60
2019-03-23T11:18:34.080Z,47.08
2019-03-23T11:21:08.125Z,44.42
2019-03-23T11:23:42.456Z,46.70
2019-03-23T11:26:16.573Z,50.45
2019-03-23T11:28:50.583Z,49.13
2019-03-23T11:31:24.713Z,48.92
2019-03-23T11:33:58.811Z,48.95
2019-03-23T11:36:32.941Z,45.67
2019-03-23T11:39:08.322Z,44.30
2019-03-23T11:41:42.594Z,47.55
2019-03-23T11:44:16.604Z,45.33
2019-03-23T11:46:50.703Z,42.80
2019-03-23T11:49:24.706Z,45.45
2019-03-23T11:51:58.711Z,44.77
2019-03-23T11:54:32.725Z,42.27
2019-03-23T11:57:07.714Z,42.88
2019-03-23T11:59:41.696Z,44.33
2019-03-23T12:02:15.743Z,39.20
2019-03-23T12:04:49.737Z,39.42
2019-03-23T12:07:23.738Z,43.52
2019-03-23T12:09:57.737Z,39.00
2019-03-23T12:12:31.760Z,46.48
2019-03-23T12:15:06.164Z,43.78
2019-03-23T12:17:40.104Z,42.95
2019-03-23T12:20:14.738Z,40.60
2019-03-23T12:22:48.804Z,43.05
2019-03-23T12:25:22.919Z,40.70
2019-03-23T12:27:57.076Z,38.23
2019-03-23T12:30:31.120Z,34.95
2019-03-23T12:33:06.231Z,37.15
2019-03-23T12:35:42.466Z,38.58
2019-03-23T12:38:25.280Z,35.63
2019-03-23T12:41:09.947Z,37.70
2019-03-23T12:43:36.640Z,36.60
2019-03-23T12:46:11.603Z,34.67
2019-03-23T12:48:51.870Z,36.53
2019-03-23T12:51:35.011Z,37.83
2019-03-23T12:54:21.438Z,36.00
2019-03-23T12:56:59.013Z,28.87
2019-03-23T12:59:38.010Z,31.70
2019-03-23T13:02:12.413Z,33.48
2019-03-23T13:04:48.943Z,36.60
2019-03-23T13:07:28.090Z,29.15
2019-03-23T13:10:02.493Z,27.85
2019-03-23T13:12:39.127Z,34.30
2019-03-23T13:15:18.101Z,22.82
2019-03-23T13:17:58.075Z,23.42
2019-03-23T13:20:38.126Z,23.02
2019-03-23T13:23:15.319Z,29.25
2019-03-23T13:26:00.414Z,22.42
2019-03-23T13:28:39.746Z,25.43
2019-03-23T13:31:24.740Z,28.07
2019-03-23T13:34:01.104Z,27.75
2019-03-23T13:36:36.728Z,26.00
2019-03-23T13:39:13.986Z,28.02
2019-03-23T13:41:52.409Z,26.62
2019-03-23T13:44:29.464Z,27.67
2019-03-23T13:47:03.506Z,28.17
2019-03-23T13:49:37.585Z,25.90
2019-03-23T13:52:14.571Z,26.02
2019-03-23T13:54:48.573Z,29.52
2019-03-23T13:57:24.991Z,25.88
2019-03-23T14:00:01.720Z,28.90
2019-03-23T14:02:37.372Z,26.77
2019-03-23T14:05:16.360Z,24.67
2019-03-23T14:07:48.315Z,27.48
2019-03-23T14:10:22.557Z,21.60
2019-03-23T14:12:56.788Z,25.20
2019-03-23T14:15:36.078Z,23.27
2019-03-23T14:18:13.561Z,21.55
2019-03-23T14:20:52.246Z,24.95
2019-03-23T14:23:32.801Z,22.15
2019-03-23T14:26:09.501Z,18.85
2019-03-23T14:28:57.006Z,23.18
2019-03-23T14:31:31.617Z,25.10
2019-03-23T14:34:29.614Z,23.38
2019-03-23T14:37:07.114Z,19.42
2019-03-23T14:39:46.703Z,30.20
2019-03-23T14:42:21.688Z,20.80
2019-03-23T14:44:57.007Z,18.55
2019-03-23T14:47:32.956Z,18.73
2019-03-23T14:50:11.423Z,34.48
2019-03-23T14:52:45.600Z,37.50
2019-03-23T14:55:19.678Z,35.43
2019-03-23T14:57:54.344Z,21.00
2019-03-23T15:00:35.783Z,19.50
2019-03-23T15:03:09.915Z,16.10
2019-03-23T15:05:43.945Z,18.30
2019-03-23T15:08:18.018Z,19.73
2019-03-23T15:10:52.090Z,13.88
2019-03-23T15:13:26.004Z,16.70
2019-03-23T15:16:00.003Z,13.18
2019-03-23T15:18:34.095Z,14.35
2019-03-23T15:21:10.226Z,28.65
2019-03-23T15:23:44.240Z,16.48
2019-03-23T15:26:18.162Z,11.97
2019-03-23T15:28:52.439Z,13.13
2019-03-23T15:31:26.972Z,10.00
2019-03-23T15:34:01.314Z,20.30
2019-03-23T15:36:36.010Z,16.73
2019-03-23T15:39:10.397Z,27.62
2019-03-23T15:41:44.350Z,16.80
2019-03-23T15:44:18.259Z,17.23
2019-03-23T15:46:52.292Z,16.02
2019-03-23T15:49:27.595Z,22.82
2019-03-23T15:52:01.543Z,31.75
2019-03-23T15:54:35.535Z,28.85
2019-03-23T15:57:09.884Z,54.75
2019-03-23T15:59:43.794Z,24.80
2019-03-23T16:02:17.817Z,22.60
2019-03-23T16:04:52.258Z,16.48
2019-03-23T16:07:29.680Z,17.75
2019-03-23T16:10:01.679Z,14.80
2019-03-23T16:12:37.654Z,14.10
2019-03-23T16:15:12.833Z,15.98
2019-03-23T16:17:46.806Z,18.87
2019-03-23T16:20:20.687Z,18.40
2019-03-23T16:22:54.642Z,21.00
2019-03-23T16:25:28.552Z,20.50
2019-03-23T16:28:02.923Z,21.02
2019-03-23T16:30:36.894Z,23.80
2019-03-23T16:33:10.920Z,28.67
2019-03-23T16:35:44.955Z,25.23
2019-03-23T16:38:18.875Z,29.20
2019-03-23T16:40:52.855Z,38.50
2019-03-23T16:43:26.863Z,58.20
2019-03-23T16:46:00.834Z,64.82
2019-03-23T16:48:34.879Z,62.17
2019-03-23T16:51:09.052Z,68.90
2019-03-23T16:53:42.988Z,72.58
2019-03-23T16:56:16.976Z,64.37
2019-03-23T16:58:50.991Z,73.05
2019-03-23T17:01:25.054Z,70.40
2019-03-23T17:03:59.005Z,66.70
2019-03-23T17:06:33.018Z,65.87
2019-03-23T17:09:07.383Z,80.30
2019-03-23T17:11:41.397Z,67.78
2019-03-23T17:14:15.689Z,76.65
2019-03-23T17:16:49.581Z,81.78
2019-03-23T17:19:23.411Z,84.77
2019-03-23T17:21:57.600Z,82.97
2019-03-23T17:24:31.670Z,78.55
2019-03-23T17:27:06.050Z,83.82
2019-03-23T17:29:50.398Z,87.40
2019-03-23T17:32:24.749Z,95.95
2019-03-23T17:34:58.769Z,101.00
2019-03-23T17:37:32.758Z,112.60
2019-03-23T17:40:06.792Z,154.87
2019-03-23T17:42:40.759Z,119.05
2019-03-23T17:45:14.729Z,138.82
2019-03-23T17:47:48.790Z,108.05
2019-03-23T17:50:22.819Z,110.63
2019-03-23T17:52:56.803Z,102.15
2019-03-23T17:55:30.883Z,124.65
2019-03-23T17:58:04.925Z,106.27
2019-03-23T18:00:38.977Z,109.87
2019-03-23T18:03:13.607Z,93.05
2019-03-23T18:05:48.093Z,97.25
2019-03-23T18:08:23.271Z,108.20
2019-03-23T18:10:58.034Z,104.53
2019-03-23T18:13:32.848Z,87.42
2019-03-23T18:16:06.943Z,91.15
2019-03-23T18:18:40.919Z,97.82
2019-03-23T18:21:15.379Z,89.28
2019-03-23T18:23:49.920Z,85.85
2019-03-23T18:26:24.026Z,80.80
2019-03-23T18:29:00.240Z,87.40
2019-03-23T18:31:34.588Z,88.62
2019-03-23T18:34:09.961Z,86.53
2019-03-23T18:36:43.999Z,81.95
2019-03-23T18:39:19.657Z,98.22
2019-03-23T18:41:53.725Z,206.50
2019-03-23T18:44:28.207Z,111.40
2019-03-23T18:47:02.344Z,69.58
2019-03-23T18:49:36.378Z,67.45
2019-03-23T18:52:10.275Z,65.17
2019-03-23T18:54:44.322Z,72.90
2019-03-23T18:57:20.664Z,64.55
2019-03-23T18:59:54.777Z,73.00
2019-03-23T19:02:28.833Z,69.12
2019-03-23T19:05:02.895Z,70.50
2019-03-23T19:07:38.002Z,63.60
2019-03-23T19:10:14.538Z,65.75
2019-03-23T19:12:50.073Z,62.08
2019-03-23T19:15:28.262Z,65.87
2019-03-23T19:18:02.265Z,68.72
2019-03-23T19:20:36.646Z,71.62
2019-03-23T19:23:13.912Z,58.75
2019-03-23T19:25:53.284Z,62.78
2019-03-23T19:28:33.652Z,65.00
2019-03-23T19:31:03.273Z,65.37
2019-03-23T19:33:38.629Z,59.85
2019-03-23T19:36:13.815Z,57.60
2019-03-23T19:38:48.284Z,54.90
2019-03-23T19:41:22.188Z,53.90
2019-03-23T19:43:56.223Z,56.15
2019-03-23T19:46:31.885Z,61.90
2019-03-23T19:49:05.884Z,57.53
2019-03-23T19:51:40.363Z,67.62
2019-03-23T19:54:14.816Z,57.75
2019-03-23T19:56:48.811Z,63.42
2019-03-23T19:59:24.468Z,97.02
2019-03-23T20:01:58.611Z,76.95
2019-03-23T20:04:34.149Z,72.92
2019-03-23T20:07:08.392Z,66.90
2019-03-23T20:09:42.510Z,73.57
2019-03-23T20:12:19.782Z,64.65
2019-03-23T20:14:54.366Z,65.45
2019-03-23T20:17:28.888Z,80.12
2019-03-23T20:20:02.961Z,59.27
2019-03-23T20:22:38.567Z,80.57
2019-03-23T20:25:13.693Z,114.25
2019-03-23T20:27:47.916Z,92.22
2019-03-23T20:30:23.493Z,77.00
2019-03-23T20:32:57.633Z,147.07
2019-03-23T20:35:32.276Z,347.30
2019-03-23T20:38:07.278Z,239.15
2019-03-23T20:40:44.319Z,114.82
2019-03-23T20:43:19.406Z,97.25
2019-03-23T20:45:56.067Z,62.58
2019-03-23T20:48:30.200Z,76.42
2019-03-23T20:51:04.355Z,63.92
2019-03-23T20:53:39.307Z,56.20
2019-03-23T20:56:15.279Z,53.63
2019-03-23T20:58:49.322Z,44.30
2019-03-23T21:01:23.248Z,48.10
2019-03-23T21:03:57.189Z,47.50
2019-03-23T21:06:31.155Z,45.38
2019-03-23T21:09:05.802Z,49.48
2019-03-23T21:11:40.726Z,55.63
2019-03-23T21:14:20.090Z,53.50
2019-03-23T21:16:50.799Z,45.23
2019-03-23T21:19:24.580Z,47.90
2019-03-23T21:21:58.549Z,48.10
2019-03-23T21:24:32.351Z,51.00
2019-03-23T21:27:06.152Z,49.93
2019-03-23T21:29:41.228Z,38.85
2019-03-23T21:32:15.281Z,51.20
2019-03-23T21:34:49.181Z,55.90
2019-03-23T21:37:23.099Z,42.20
2019-03-23T21:39:57.487Z,33.92
2019-03-23T21:42:31.512Z,39.83
2019-03-23T21:45:05.766Z,39.08
2019-03-23T21:47:39.605Z,38.92
2019-03-23T21:50:13.411Z,38.05
2019-03-23T21:52:47.311Z,38.85
2019-03-23T21:55:21.187Z,34.20
2019-03-23T21:57:55.318Z,32.53
2019-03-23T22:00:38.224Z,46.68
2019-03-23T22:03:12.059Z,42.17
2019-03-23T22:05:45.991Z,31.20
2019-03-23T22:08:19.932Z,43.10
2019-03-23T22:10:53.806Z,36.50
2019-03-23T22:13:27.642Z,33.73
2019-03-23T22:16:01.560Z,32.67
2019-03-23T22:18:35.379Z,33.95
2019-03-23T22:21:10.003Z,30.45
2019-03-23T22:23:43.899Z,32.60
2019-03-23T22:26:17.859Z,32.10
2019-03-23T22:28:51.714Z,33.55
2019-03-23T22:31:25.609Z,40.67
2019-03-23T22:33:59.488Z,33.05
2019-03-23T22:36:33.450Z,34.58
2019-03-23T22:39:08.503Z,32.67
2019-03-23T22:41:42.376Z,33.10
2019-03-23T22:44:16.320Z,33.45
2019-03-23T22:46:50.144Z,30.48
2019-03-23T22:49:23.961Z,31.87
2019-03-23T22:51:57.844Z,33.92
2019-03-23T22:54:31.634Z,28.05
2019-03-23T22:57:05.421Z,35.58
2019-03-23T22:59:39.388Z,35.17
2019-03-23T23:02:13.163Z,35.38
2019-03-23T23:04:47.094Z,33.95
2019-03-23T23:07:20.895Z,36.60
2019-03-23T23:09:54.808Z,44.00
2019-03-23T23:12:28.600Z,42.25
2019-03-23T23:15:04.775Z,39.58
2019-03-23T23:17:37.941Z,35.38
2019-03-23T23:20:11.858Z,56.48
2019-03-23T23:22:45.624Z,44.90
2019-03-23T23:25:19.542Z,35.98
2019-03-23T23:27:54.162Z,43.00
2019-03-23T23:30:28.046Z,36.55
2019-03-23T23:33:01.973Z,34.65
2019-03-23T23:35:35.865Z,37.15
2019-03-23T23:38:09.647Z,34.85
2019-03-23T23:40:44.538Z,37.50
2019-03-23T23:43:18.412Z,36.75
2019-03-23T23:45:52.247Z,31.42
2019-03-23T23:48:26.482Z,30.92
2019-03-23T23:51:00.320Z,34.73
2019-03-23T23:53:34.206Z,31.87
2019-03-23T23:56:08.015Z,33.60
2019-03-23T23:58:42.278Z,38.30
